sensor_id;sensor_type;location;lat;lon;timestamp;P1;durP1;ratioP1;P2;durP2;ratioP2
4583;SDS011;2304;47.606;12.186;2022-08-01T00:01:53;5.47;;;4.87;;
4583;SDS011;2304;47.606;12.186;2022-08-01T00:06:55;7.77;;;5.63;;
4583;SDS011;2304;47.606;12.186;2022-08-01T00:11:57;9.40;;;4.70;;
4583;SDS011;2304;47.606;12.186;2022-08-01T00:17:00;6.80;;;5.03;;
4583;SDS011;2304;47.606;12.186;2022-08-01T00:22:02;8.73;;;5.37;;
4583;SDS011;2304;47.606;12.186;2022-08-01T00:27:04;7.40;;;4.50;;
4583;SDS011;2304;47.606;12.186;2022-08-01T00:32:07;6.53;;;4.73;;
4583;SDS011;2304;47.606;12.186;2022-08-01T00:37:09;7.10;;;5.30;;
4583;SDS011;2304;47.606;12.186;2022-08-01T00:42:12;8.80;;;5.40;;
4583;SDS011;2304;47.606;12.186;2022-08-01T00:47:15;7.73;;;5.57;;
4583;SDS011;2304;47.606;12.186;2022-08-01T00:52:17;6.37;;;5.07;;
4583;SDS011;2304;47.606;12.186;2022-08-01T00:57:19;10.70;;;5.10;;
4583;SDS011;2304;47.606;12.186;2022-08-01T01:02:22;6.00;;;4.70;;
4583;SDS011;2304;47.606;12.186;2022-08-01T01:07:29;6.13;;;5.40;;
4583;SDS011;2304;47.606;12.186;2022-08-01T01:12:41;6.33;;;4.93;;
4583;SDS011;2304;47.606;12.186;2022-08-01T01:17:51;6.40;;;5.40;;
4583;SDS011;2304;47.606;12.186;2022-08-01T01:23:00;8.50;;;4.67;;
4583;SDS011;2304;47.606;12.186;2022-08-01T01:28:14;6.17;;;4.93;;
4583;SDS011;2304;47.606;12.186;2022-08-01T01:33:23;9.37;;;5.77;;
4583;SDS011;2304;47.606;12.186;2022-08-01T01:38:32;7.90;;;5.70;;
4583;SDS011;2304;47.606;12.186;2022-08-01T01:43:37;9.53;;;5.30;;
4583;SDS011;2304;47.606;12.186;2022-08-01T01:48:42;5.90;;;4.50;;
4583;SDS011;2304;47.606;12.186;2022-08-01T01:53:46;7.40;;;5.33;;
4583;SDS011;2304;47.606;12.186;2022-08-01T01:58:50;7.30;;;4.97;;
4583;SDS011;2304;47.606;12.186;2022-08-01T02:03:56;5.80;;;4.67;;
4583;SDS011;2304;47.606;12.186;2022-08-01T02:08:58;6.90;;;5.60;;
4583;SDS011;2304;47.606;12.186;2022-08-01T02:14:02;10.37;;;5.83;;
4583;SDS011;2304;47.606;12.186;2022-08-01T02:19:06;6.23;;;5.50;;
4583;SDS011;2304;47.606;12.186;2022-08-01T02:24:10;7.73;;;5.87;;
4583;SDS011;2304;47.606;12.186;2022-08-01T02:29:17;7.10;;;6.17;;
4583;SDS011;2304;47.606;12.186;2022-08-01T02:34:25;7.43;;;5.53;;
4583;SDS011;2304;47.606;12.186;2022-08-01T02:39:31;6.27;;;5.67;;
4583;SDS011;2304;47.606;12.186;2022-08-01T02:44:35;8.17;;;5.90;;
4583;SDS011;2304;47.606;12.186;2022-08-01T02:49:42;9.60;;;5.70;;
4583;SDS011;2304;47.606;12.186;2022-08-01T02:54:47;7.63;;;5.73;;
4583;SDS011;2304;47.606;12.186;2022-08-01T02:59:51;5.37;;;4.87;;
4583;SDS011;2304;47.606;12.186;2022-08-01T03:04:57;7.00;;;5.23;;
4583;SDS011;2304;47.606;12.186;2022-08-01T03:10:02;4.27;;;3.87;;
4583;SDS011;2304;47.606;12.186;2022-08-01T03:15:04;5.37;;;3.93;;
4583;SDS011;2304;47.606;12.186;2022-08-01T03:20:09;6.80;;;4.97;;
4583;SDS011;2304;47.606;12.186;2022-08-01T03:25:14;6.27;;;4.87;;
4583;SDS011;2304;47.606;12.186;2022-08-01T03:30:17;5.53;;;4.33;;
4583;SDS011;2304;47.606;12.186;2022-08-01T03:35:20;5.10;;;4.60;;
4583;SDS011;2304;47.606;12.186;2022-08-01T03:40:25;6.43;;;5.10;;
4583;SDS011;2304;47.606;12.186;2022-08-01T03:45:34;6.43;;;5.07;;
4583;SDS011;2304;47.606;12.186;2022-08-01T03:50:41;5.00;;;4.03;;
4583;SDS011;2304;47.606;12.186;2022-08-01T03:55:47;11.83;;;5.27;;
4583;SDS011;2304;47.606;12.186;2022-08-01T04:00:50;6.33;;;5.67;;
4583;SDS011;2304;47.606;12.186;2022-08-01T04:05:54;7.47;;;4.80;;
4583;SDS011;2304;47.606;12.186;2022-08-01T04:10:56;5.67;;;4.30;;
4583;SDS011;2304;47.606;12.186;2022-08-01T04:15:58;5.93;;;5.00;;
4583;SDS011;2304;47.606;12.186;2022-08-01T04:21:02;5.30;;;4.80;;
4583;SDS011;2304;47.606;12.186;2022-08-01T04:26:04;6.17;;;5.57;;
4583;SDS011;2304;47.606;12.186;2022-08-01T04:31:08;7.67;;;5.30;;
4583;SDS011;2304;47.606;12.186;2022-08-01T04:36:13;6.57;;;5.70;;
4583;SDS011;2304;47.606;12.186;2022-08-01T04:41:17;7.43;;;6.17;;
4583;SDS011;2304;47.606;12.186;2022-08-01T04:46:20;5.80;;;5.23;;
4583;SDS011;2304;47.606;12.186;2022-08-01T04:51:24;6.33;;;5.00;;
4583;SDS011;2304;47.606;12.186;2022-08-01T04:56:26;6.27;;;5.37;;
4583;SDS011;2304;47.606;12.186;2022-08-01T05:01:28;6.57;;;5.60;;
4583;SDS011;2304;47.606;12.186;2022-08-01T05:06:31;7.57;;;5.70;;
4583;SDS011;2304;47.606;12.186;2022-08-01T05:11:33;11.13;;;6.43;;
4583;SDS011;2304;47.606;12.186;2022-08-01T05:16:35;10.77;;;7.80;;
4583;SDS011;2304;47.606;12.186;2022-08-01T05:21:38;6.47;;;5.30;;
4583;SDS011;2304;47.606;12.186;2022-08-01T05:26:40;10.30;;;6.63;;
4583;SDS011;2304;47.606;12.186;2022-08-01T05:31:42;10.40;;;6.30;;
4583;SDS011;2304;47.606;12.186;2022-08-01T05:36:45;7.57;;;5.03;;
4583;SDS011;2304;47.606;12.186;2022-08-01T05:41:47;5.67;;;5.07;;
4583;SDS011;2304;47.606;12.186;2022-08-01T05:46:49;9.13;;;6.57;;
4583;SDS011;2304;47.606;12.186;2022-08-01T05:51:52;12.50;;;6.50;;
4583;SDS011;2304;47.606;12.186;2022-08-01T05:56:55;13.57;;;6.70;;
4583;SDS011;2304;47.606;12.186;2022-08-01T06:01:59;20.67;;;7.03;;
4583;SDS011;2304;47.606;12.186;2022-08-01T06:07:03;16.50;;;6.70;;
4583;SDS011;2304;47.606;12.186;2022-08-01T06:12:05;6.93;;;5.00;;
4583;SDS011;2304;47.606;12.186;2022-08-01T06:17:07;12.33;;;6.03;;
4583;SDS011;2304;47.606;12.186;2022-08-01T06:22:10;7.27;;;4.83;;
4583;SDS011;2304;47.606;12.186;2022-08-01T06:27:12;10.00;;;5.50;;
4583;SDS011;2304;47.606;12.186;2022-08-01T06:32:14;7.17;;;5.50;;
4583;SDS011;2304;47.606;12.186;2022-08-01T06:37:17;9.67;;;5.37;;
4583;SDS011;2304;47.606;12.186;2022-08-01T06:42:19;7.37;;;5.10;;
4583;SDS011;2304;47.606;12.186;2022-08-01T06:47:21;7.67;;;5.30;;
4583;SDS011;2304;47.606;12.186;2022-08-01T06:52:25;8.37;;;5.23;;
4583;SDS011;2304;47.606;12.186;2022-08-01T06:57:27;5.77;;;5.27;;
4583;SDS011;2304;47.606;12.186;2022-08-01T07:02:29;6.47;;;5.77;;
4583;SDS011;2304;47.606;12.186;2022-08-01T07:07:32;4.97;;;4.10;;
4583;SDS011;2304;47.606;12.186;2022-08-01T07:12:34;7.17;;;4.90;;
4583;SDS011;2304;47.606;12.186;2022-08-01T07:17:38;12.43;;;4.97;;
4583;SDS011;2304;47.606;12.186;2022-08-01T07:22:42;6.63;;;4.90;;
4583;SDS011;2304;47.606;12.186;2022-08-01T07:27:44;9.60;;;5.30;;
4583;SDS011;2304;47.606;12.186;2022-08-01T07:32:46;6.47;;;4.97;;
4583;SDS011;2304;47.606;12.186;2022-08-01T07:37:49;7.47;;;5.10;;
4583;SDS011;2304;47.606;12.186;2022-08-01T07:42:53;5.83;;;4.47;;
4583;SDS011;2304;47.606;12.186;2022-08-01T07:47:54;4.97;;;4.43;;
4583;SDS011;2304;47.606;12.186;2022-08-01T07:52:58;7.40;;;4.60;;
4583;SDS011;2304;47.606;12.186;2022-08-01T07:58:00;8.20;;;4.83;;
4583;SDS011;2304;47.606;12.186;2022-08-01T08:03:02;4.60;;;4.13;;
4583;SDS011;2304;47.606;12.186;2022-08-01T08:08:06;7.93;;;4.63;;
4583;SDS011;2304;47.606;12.186;2022-08-01T08:13:08;6.10;;;4.70;;
4583;SDS011;2304;47.606;12.186;2022-08-01T08:18:10;7.90;;;4.73;;
4583;SDS011;2304;47.606;12.186;2022-08-01T08:23:13;6.20;;;5.00;;
4583;SDS011;2304;47.606;12.186;2022-08-01T08:28:32;8.73;;;5.27;;
4583;SDS011;2304;47.606;12.186;2022-08-01T08:33:34;5.20;;;4.07;;
4583;SDS011;2304;47.606;12.186;2022-08-01T08:38:37;5.10;;;4.40;;
4583;SDS011;2304;47.606;12.186;2022-08-01T08:43:39;5.43;;;4.27;;
4583;SDS011;2304;47.606;12.186;2022-08-01T08:48:42;4.60;;;4.20;;
4583;SDS011;2304;47.606;12.186;2022-08-01T08:53:45;5.27;;;4.00;;
4583;SDS011;2304;47.606;12.186;2022-08-01T08:58:48;6.47;;;4.17;;
4583;SDS011;2304;47.606;12.186;2022-08-01T09:03:51;6.90;;;3.80;;
4583;SDS011;2304;47.606;12.186;2022-08-01T09:08:55;10.90;;;4.33;;
4583;SDS011;2304;47.606;12.186;2022-08-01T09:14:04;6.40;;;4.00;;
4583;SDS011;2304;47.606;12.186;2022-08-01T09:19:08;6.97;;;4.20;;
4583;SDS011;2304;47.606;12.186;2022-08-01T09:24:16;8.00;;;4.20;;
4583;SDS011;2304;47.606;12.186;2022-08-01T09:29:19;4.30;;;3.47;;
4583;SDS011;2304;47.606;12.186;2022-08-01T09:34:24;3.80;;;3.17;;
4583;SDS011;2304;47.606;12.186;2022-08-01T09:39:28;4.90;;;3.73;;
4583;SDS011;2304;47.606;12.186;2022-08-01T09:44:37;5.00;;;3.20;;
4583;SDS011;2304;47.606;12.186;2022-08-01T09:49:40;4.33;;;3.63;;
4583;SDS011;2304;47.606;12.186;2022-08-01T09:54:53;4.77;;;3.90;;
4583;SDS011;2304;47.606;12.186;2022-08-01T09:59:56;4.20;;;3.50;;
4583;SDS011;2304;47.606;12.186;2022-08-01T10:04:59;3.33;;;3.00;;
4583;SDS011;2304;47.606;12.186;2022-08-01T10:10:10;4.60;;;3.30;;
4583;SDS011;2304;47.606;12.186;2022-08-01T10:15:13;5.63;;;3.23;;
4583;SDS011;2304;47.606;12.186;2022-08-01T10:20:17;5.57;;;3.50;;
4583;SDS011;2304;47.606;12.186;2022-08-01T10:25:22;6.77;;;3.00;;
4583;SDS011;2304;47.606;12.186;2022-08-01T10:30:25;6.20;;;3.33;;
4583;SDS011;2304;47.606;12.186;2022-08-01T10:35:27;6.60;;;3.50;;
4583;SDS011;2304;47.606;12.186;2022-08-01T10:40:30;3.60;;;3.17;;
4583;SDS011;2304;47.606;12.186;2022-08-01T10:45:33;3.90;;;3.03;;
4583;SDS011;2304;47.606;12.186;2022-08-01T10:50:37;4.37;;;3.17;;
4583;SDS011;2304;47.606;12.186;2022-08-01T10:55:51;3.10;;;2.80;;
4583;SDS011;2304;47.606;12.186;2022-08-01T11:01:18;4.00;;;3.20;;
4583;SDS011;2304;47.606;12.186;2022-08-01T11:06:23;5.73;;;2.83;;
4583;SDS011;2304;47.606;12.186;2022-08-01T11:11:28;4.50;;;2.80;;
4583;SDS011;2304;47.606;12.186;2022-08-01T11:16:31;4.20;;;3.10;;
4583;SDS011;2304;47.606;12.186;2022-08-01T11:27:16;5.03;;;2.87;;
4583;SDS011;2304;47.606;12.186;2022-08-01T11:32:26;3.37;;;2.78;;
4583;SDS011;2304;47.606;12.186;2022-08-01T11:37:28;3.92;;;2.60;;
4583;SDS011;2304;47.606;12.186;2022-08-01T11:42:32;2.50;;;1.95;;
4583;SDS011;2304;47.606;12.186;2022-08-01T11:47:42;3.58;;;2.47;;
4583;SDS011;2304;47.606;12.186;2022-08-01T11:52:44;2.58;;;2.20;;
4583;SDS011;2304;47.606;12.186;2022-08-01T11:57:48;2.87;;;2.30;;
4583;SDS011;2304;47.606;12.186;2022-08-01T12:02:56;4.62;;;2.30;;
4583;SDS011;2304;47.606;12.186;2022-08-01T12:07:59;2.08;;;1.75;;
4583;SDS011;2304;47.606;12.186;2022-08-01T12:13:05;4.05;;;1.95;;
4583;SDS011;2304;47.606;12.186;2022-08-01T12:18:07;3.80;;;2.27;;
4583;SDS011;2304;47.606;12.186;2022-08-01T12:23:10;5.20;;;2.70;;
4583;SDS011;2304;47.606;12.186;2022-08-01T12:28:14;4.85;;;2.25;;
4583;SDS011;2304;47.606;12.186;2022-08-01T12:33:19;3.15;;;2.10;;
4583;SDS011;2304;47.606;12.186;2022-08-01T12:38:22;3.03;;;2.10;;
4583;SDS011;2304;47.606;12.186;2022-08-01T12:43:26;3.30;;;1.90;;
4583;SDS011;2304;47.606;12.186;2022-08-01T12:48:34;3.80;;;2.10;;
4583;SDS011;2304;47.606;12.186;2022-08-01T12:53:36;3.58;;;2.08;;
4583;SDS011;2304;47.606;12.186;2022-08-01T12:58:39;2.70;;;1.90;;
4583;SDS011;2304;47.606;12.186;2022-08-01T13:03:41;3.05;;;1.85;;
4583;SDS011;2304;47.606;12.186;2022-08-01T13:09:04;3.67;;;2.03;;
4583;SDS011;2304;47.606;12.186;2022-08-01T13:14:07;2.33;;;1.62;;
4583;SDS011;2304;47.606;12.186;2022-08-01T13:19:09;3.65;;;2.12;;
4583;SDS011;2304;47.606;12.186;2022-08-01T13:24:12;2.40;;;2.10;;
4583;SDS011;2304;47.606;12.186;2022-08-01T13:29:16;2.87;;;2.00;;
4583;SDS011;2304;47.606;12.186;2022-08-01T13:34:28;3.80;;;1.80;;
4583;SDS011;2304;47.606;12.186;2022-08-01T13:39:31;3.70;;;2.10;;
4583;SDS011;2304;47.606;12.186;2022-08-01T13:44:43;2.50;;;1.75;;
4583;SDS011;2304;47.606;12.186;2022-08-01T13:49:45;2.62;;;2.10;;
4583;SDS011;2304;47.606;12.186;2022-08-01T13:54:47;3.12;;;1.90;;
4583;SDS011;2304;47.606;12.186;2022-08-01T13:59:50;4.00;;;1.83;;
4583;SDS011;2304;47.606;12.186;2022-08-01T14:04:52;2.20;;;1.70;;
4583;SDS011;2304;47.606;12.186;2022-08-01T14:09:54;2.80;;;2.10;;
4583;SDS011;2304;47.606;12.186;2022-08-01T14:14:57;3.10;;;1.83;;
4583;SDS011;2304;47.606;12.186;2022-08-01T14:19:59;4.80;;;2.30;;
4583;SDS011;2304;47.606;12.186;2022-08-01T14:25:02;5.00;;;2.00;;
4583;SDS011;2304;47.606;12.186;2022-08-01T14:30:06;5.60;;;2.07;;
4583;SDS011;2304;47.606;12.186;2022-08-01T14:35:09;3.20;;;2.12;;
4583;SDS011;2304;47.606;12.186;2022-08-01T14:40:11;4.75;;;1.60;;
4583;SDS011;2304;47.606;12.186;2022-08-01T14:45:14;3.67;;;1.80;;
4583;SDS011;2304;47.606;12.186;2022-08-01T14:50:16;7.93;;;2.30;;
4583;SDS011;2304;47.606;12.186;2022-08-01T14:55:18;4.10;;;2.23;;
4583;SDS011;2304;47.606;12.186;2022-08-01T15:00:24;3.08;;;1.70;;
4583;SDS011;2304;47.606;12.186;2022-08-01T15:05:26;3.80;;;1.90;;
4583;SDS011;2304;47.606;12.186;2022-08-01T15:10:30;2.37;;;1.90;;
4583;SDS011;2304;47.606;12.186;2022-08-01T15:15:34;4.23;;;2.10;;
4583;SDS011;2304;47.606;12.186;2022-08-01T15:20:36;2.67;;;2.03;;
4583;SDS011;2304;47.606;12.186;2022-08-01T15:25:38;4.10;;;2.20;;
4583;SDS011;2304;47.606;12.186;2022-08-01T15:30:41;2.97;;;1.83;;
4583;SDS011;2304;47.606;12.186;2022-08-01T15:35:43;4.00;;;2.20;;
4583;SDS011;2304;47.606;12.186;2022-08-01T15:40:45;2.63;;;1.83;;
4583;SDS011;2304;47.606;12.186;2022-08-01T15:45:48;2.33;;;1.87;;
4583;SDS011;2304;47.606;12.186;2022-08-01T15:50:50;3.30;;;2.10;;
4583;SDS011;2304;47.606;12.186;2022-08-01T15:55:52;2.67;;;1.63;;
4583;SDS011;2304;47.606;12.186;2022-08-01T16:00:55;5.40;;;1.67;;
4583;SDS011;2304;47.606;12.186;2022-08-01T16:05:57;3.03;;;1.80;;
4583;SDS011;2304;47.606;12.186;2022-08-01T16:10:59;2.90;;;2.00;;
4583;SDS011;2304;47.606;12.186;2022-08-01T16:16:02;2.23;;;1.80;;
4583;SDS011;2304;47.606;12.186;2022-08-01T16:21:04;4.90;;;2.20;;
4583;SDS011;2304;47.606;12.186;2022-08-01T16:26:07;2.53;;;1.87;;
4583;SDS011;2304;47.606;12.186;2022-08-01T16:31:11;3.93;;;1.90;;
4583;SDS011;2304;47.606;12.186;2022-08-01T16:36:12;3.70;;;2.17;;
4583;SDS011;2304;47.606;12.186;2022-08-01T16:41:14;3.00;;;2.03;;
4583;SDS011;2304;47.606;12.186;2022-08-01T16:46:18;2.43;;;1.67;;
4583;SDS011;2304;47.606;12.186;2022-08-01T16:51:20;5.20;;;2.30;;
4583;SDS011;2304;47.606;12.186;2022-08-01T16:56:22;3.17;;;1.90;;
4583;SDS011;2304;47.606;12.186;2022-08-01T17:01:25;5.87;;;1.80;;
4583;SDS011;2304;47.606;12.186;2022-08-01T17:06:27;3.57;;;2.03;;
4583;SDS011;2304;47.606;12.186;2022-08-01T17:11:29;2.63;;;1.70;;
4583;SDS011;2304;47.606;12.186;2022-08-01T17:16:33;3.83;;;2.00;;
4583;SDS011;2304;47.606;12.186;2022-08-01T17:21:35;2.37;;;1.73;;
4583;SDS011;2304;47.606;12.186;2022-08-01T17:26:37;3.40;;;2.17;;
4583;SDS011;2304;47.606;12.186;2022-08-01T17:31:40;2.63;;;1.90;;
4583;SDS011;2304;47.606;12.186;2022-08-01T17:36:42;4.13;;;1.97;;
4583;SDS011;2304;47.606;12.186;2022-08-01T17:41:44;3.80;;;2.13;;
4583;SDS011;2304;47.606;12.186;2022-08-01T17:46:48;4.70;;;2.03;;
4583;SDS011;2304;47.606;12.186;2022-08-01T17:51:50;2.70;;;2.00;;
4583;SDS011;2304;47.606;12.186;2022-08-01T17:56:52;1.93;;;1.63;;
4583;SDS011;2304;47.606;12.186;2022-08-01T18:01:55;4.23;;;2.10;;
4583;SDS011;2304;47.606;12.186;2022-08-01T18:06:57;3.60;;;2.17;;
4583;SDS011;2304;47.606;12.186;2022-08-01T18:11:58;3.60;;;1.80;;
4583;SDS011;2304;47.606;12.186;2022-08-01T18:17:02;5.27;;;2.20;;
4583;SDS011;2304;47.606;12.186;2022-08-01T18:22:05;3.87;;;1.97;;
4583;SDS011;2304;47.606;12.186;2022-08-01T18:27:07;4.50;;;1.87;;
4583;SDS011;2304;47.606;12.186;2022-08-01T18:32:10;3.30;;;1.93;;
4583;SDS011;2304;47.606;12.186;2022-08-01T18:37:12;3.50;;;1.93;;
4583;SDS011;2304;47.606;12.186;2022-08-01T18:42:15;3.00;;;2.10;;
4583;SDS011;2304;47.606;12.186;2022-08-01T18:47:19;5.00;;;2.13;;
4583;SDS011;2304;47.606;12.186;2022-08-01T18:52:20;3.90;;;2.07;;
4583;SDS011;2304;47.606;12.186;2022-08-01T18:57:22;4.03;;;2.70;;
4583;SDS011;2304;47.606;12.186;2022-08-01T19:02:26;2.70;;;2.40;;
4583;SDS011;2304;47.606;12.186;2022-08-01T19:07:28;4.20;;;2.50;;
4583;SDS011;2304;47.606;12.186;2022-08-01T19:12:29;3.90;;;2.57;;
4583;SDS011;2304;47.606;12.186;2022-08-01T19:17:33;4.77;;;2.73;;
4583;SDS011;2304;47.606;12.186;2022-08-01T19:22:35;4.57;;;2.60;;
4583;SDS011;2304;47.606;12.186;2022-08-01T19:27:37;5.10;;;2.87;;
4583;SDS011;2304;47.606;12.186;2022-08-01T19:32:43;3.80;;;2.43;;
4583;SDS011;2304;47.606;12.186;2022-08-01T19:37:46;3.70;;;2.70;;
4583;SDS011;2304;47.606;12.186;2022-08-01T19:42:50;5.57;;;3.43;;
4583;SDS011;2304;47.606;12.186;2022-08-01T19:47:54;6.20;;;2.57;;
4583;SDS011;2304;47.606;12.186;2022-08-01T19:52:56;4.60;;;2.77;;
4583;SDS011;2304;47.606;12.186;2022-08-01T19:58:03;3.40;;;2.67;;
4583;SDS011;2304;47.606;12.186;2022-08-01T20:03:08;5.80;;;2.90;;
4583;SDS011;2304;47.606;12.186;2022-08-01T20:08:12;4.30;;;3.13;;
4583;SDS011;2304;47.606;12.186;2022-08-01T20:13:16;5.33;;;2.80;;
4583;SDS011;2304;47.606;12.186;2022-08-01T20:18:19;4.33;;;2.93;;
4583;SDS011;2304;47.606;12.186;2022-08-01T20:23:22;4.97;;;2.97;;
4583;SDS011;2304;47.606;12.186;2022-08-01T20:28:26;5.80;;;2.60;;
4583;SDS011;2304;47.606;12.186;2022-08-01T20:33:31;5.00;;;3.10;;
4583;SDS011;2304;47.606;12.186;2022-08-01T20:38:34;6.60;;;3.10;;
4583;SDS011;2304;47.606;12.186;2022-08-01T20:43:38;4.20;;;2.87;;
4583;SDS011;2304;47.606;12.186;2022-08-01T20:48:41;3.47;;;2.90;;
4583;SDS011;2304;47.606;12.186;2022-08-01T20:53:47;4.13;;;3.00;;
4583;SDS011;2304;47.606;12.186;2022-08-01T21:04:20;3.70;;;2.37;;
4583;SDS011;2304;47.606;12.186;2022-08-01T21:09:35;5.87;;;2.83;;
4583;SDS011;2304;47.606;12.186;2022-08-01T21:14:41;4.43;;;2.87;;
4583;SDS011;2304;47.606;12.186;2022-08-01T21:19:52;4.77;;;2.93;;
4583;SDS011;2304;47.606;12.186;2022-08-01T21:25:01;3.97;;;2.97;;
4583;SDS011;2304;47.606;12.186;2022-08-01T21:30:06;5.53;;;3.87;;
4583;SDS011;2304;47.606;12.186;2022-08-01T21:35:10;7.60;;;3.03;;
4583;SDS011;2304;47.606;12.186;2022-08-01T21:40:13;4.80;;;3.13;;
4583;SDS011;2304;47.606;12.186;2022-08-01T21:45:15;4.87;;;3.40;;
4583;SDS011;2304;47.606;12.186;2022-08-01T21:50:22;6.50;;;2.43;;
4583;SDS011;2304;47.606;12.186;2022-08-01T21:55:26;4.87;;;2.80;;
4583;SDS011;2304;47.606;12.186;2022-08-01T22:00:32;5.83;;;3.20;;
4583;SDS011;2304;47.606;12.186;2022-08-01T22:05:41;5.10;;;3.47;;
4583;SDS011;2304;47.606;12.186;2022-08-01T22:10:46;5.37;;;3.30;;
4583;SDS011;2304;47.606;12.186;2022-08-01T22:15:55;4.53;;;2.70;;
4583;SDS011;2304;47.606;12.186;2022-08-01T22:20:59;3.80;;;2.73;;
4583;SDS011;2304;47.606;12.186;2022-08-01T22:26:04;9.70;;;4.17;;
4583;SDS011;2304;47.606;12.186;2022-08-01T22:31:07;3.90;;;2.90;;
4583;SDS011;2304;47.606;12.186;2022-08-01T22:36:11;5.10;;;3.20;;
4583;SDS011;2304;47.606;12.186;2022-08-01T22:41:14;5.23;;;3.43;;
4583;SDS011;2304;47.606;12.186;2022-08-01T22:46:22;4.70;;;3.20;;
4583;SDS011;2304;47.606;12.186;2022-08-01T22:51:33;5.87;;;3.10;;
4583;SDS011;2304;47.606;12.186;2022-08-01T22:56:42;6.37;;;3.83;;
4583;SDS011;2304;47.606;12.186;2022-08-01T23:01:47;6.00;;;3.33;;
4583;SDS011;2304;47.606;12.186;2022-08-01T23:06:51;4.87;;;3.37;;
4583;SDS011;2304;47.606;12.186;2022-08-01T23:11:58;6.30;;;3.30;;
4583;SDS011;2304;47.606;12.186;2022-08-01T23:17:01;6.43;;;3.20;;
4583;SDS011;2304;47.606;12.186;2022-08-01T23:22:05;5.00;;;2.60;;
4583;SDS011;2304;47.606;12.186;2022-08-01T23:27:07;4.57;;;3.10;;
4583;SDS011;2304;47.606;12.186;2022-08-01T23:32:27;4.53;;;2.83;;
4583;SDS011;2304;47.606;12.186;2022-08-01T23:37:30;4.47;;;3.10;;
4583;SDS011;2304;47.606;12.186;2022-08-01T23:42:32;4.87;;;2.87;;
4583;SDS011;2304;47.606;12.186;2022-08-01T23:47:34;3.80;;;2.77;;
4583;SDS011;2304;47.606;12.186;2022-08-01T23:52:37;6.70;;;3.87;;
4583;SDS011;2304;47.606;12.186;2022-08-01T23:57:39;3.50;;;2.80;;
